Astoria, South Dakota
Current Conditions -  °F | °C
As of 10:14 PM on Wednesday 28 Jan 2015 (Local Time) from KCNB Reporting Station
Overcast Overcast  
Wind Chill: 23°   Ceiling: 1000
Heat Index: 34°   Visibility: 7mi
Dew Point: 32°   Wind: 16mph
Humidity: 94%   Direction: 330°NNW
Pressure: 29.95"   Gusts: 26mph
Location:  44.56°N, 96.55°W
Report Text: KCNB 290414Z AUTO 33014G23KT 7SM OVC010 01/00 A2995 RMK AO2 T00090000
Loading
Personal Weather Stations






























Interactive Weather Map New forecast layout! Learn more

10-Day Weather Forecast

Advertisements
Track Severe Weather on mobile